Time;durP1;ratioP1;P1;durP2;ratioP2;P2;SDS_P1;SDS_P2;PMS_P1;PMS_P2;Temp;Humidity;BMP_temperature;BMP_pressure;BME280_temperature;BME280_humidity;BME280_pressure;Samples;Min_cycle;Max_cycle;Signal;HPM_P1;HPM_P2
2023/04/07 00:00:58;;;;;;;;;;;;;;;9.46;75.38;100802.97;5180195;28;20084;-80
2023/04/07 00:03:29;;;;;;;1.27;1.27;;;;;;;9.34;78.66;100803.25;5182366;28;19922;-80
2023/04/07 00:05:59;;;;;;;0.93;0.85;;;;;;;9.37;76.23;100809.28;5180989;28;20296;-80
2023/04/07 00:08:30;;;;;;;0.63;0.63;;;;;;;9.39;79.44;100810.09;5179156;28;20024;-81
2023/04/07 00:11:00;;;;;;;1.23;1.05;;;;;;;9.45;76.74;100809.09;5162094;28;20088;-81
2023/04/07 00:13:31;;;;;;;0.85;0.85;;;;;;;9.47;77.87;100807.31;5149489;28;20022;-81
2023/04/07 00:16:01;;;;;;;0.65;0.65;;;;;;;9.33;81.26;100818.06;5177496;28;20033;-80
2023/04/07 00:18:32;;;;;;;1.67;0.93;;;;;;;9.21;82.61;100811.34;5182879;28;20034;-81
2023/04/07 00:21:02;;;;;;;0.47;0.47;;;;;;;9.21;84.30;100810.47;5171047;28;20137;-81
2023/04/07 00:23:33;;;;;;;0.47;0.47;;;;;;;9.22;84.11;100812.19;5163139;28;20026;-81
2023/04/07 00:26:03;;;;;;;0.63;0.63;;;;;;;9.29;83.44;100808.56;5153479;28;20146;-80
2023/04/07 00:28:34;;;;;;;0.85;0.85;;;;;;;9.39;79.93;100817.94;5177530;28;20020;-80
2023/04/07 00:31:04;;;;;;;4.93;1.58;;;;;;;9.41;79.97;100813.53;5183397;28;20251;-80
2023/04/07 00:33:35;;;;;;;0.73;0.73;;;;;;;9.39;80.03;100815.31;5160822;28;20042;-81
2023/04/07 00:36:05;;;;;;;0.52;0.52;;;;;;;9.30;84.27;100810.28;5168890;28;20038;-80
2023/04/07 00:38:38;;;;;;;1.00;1.00;;;;;;;9.31;82.87;100808.53;5196440;28;20026;-81
2023/04/07 00:41:09;;;;;;;1.52;1.42;;;;;;;9.35;82.17;100813.69;5169154;28;20045;-80
2023/04/07 00:43:40;;;;;;;1.35;1.25;;;;;;;9.42;79.88;100804.78;5149431;28;20274;-81
2023/04/07 00:46:10;;;;;;;1.63;1.52;;;;;;;9.41;80.30;100807.47;5161103;28;20038;-80
2023/04/07 00:48:41;;;;;;;2.30;0.80;;;;;;;9.51;79.78;100797.63;5177711;28;20077;-81
2023/04/07 00:51:12;;;;;;;1.20;1.20;;;;;;;9.49;80.60;100799.41;5176137;28;20048;-81
2023/04/07 00:53:42;;;;;;;1.33;1.23;;;;;;;9.55;78.49;100800.16;5193533;28;20145;-80
2023/04/07 00:56:13;;;;;;;1.52;1.42;;;;;;;9.54;80.94;100787.09;5161269;28;20041;-80
2023/04/07 00:58:43;;;;;;;2.08;1.98;;;;;;;9.57;79.97;100797.50;5157360;28;20812;-81
2023/04/07 01:01:34;;;;;;;1.23;1.23;;;;;;;9.56;79.61;100791.41;5176110;28;20109;-81
2023/04/07 01:04:14;;;;;;;2.13;1.85;;;;;;;9.50;81.22;100790.66;5180336;28;20117;-80
2023/04/07 01:06:49;;;;;;;2.28;1.15;;;;;;;9.55;80.07;100796.66;5177051;28;20034;-80
2023/04/07 01:09:24;;;;;;;1.52;1.42;;;;;;;9.49;81.10;100794.19;5182905;28;20496;-80
2023/04/07 01:12:19;;;;;;;6.63;2.03;;;;;;;9.52;80.20;100794.13;5173758;28;20661;-80
2023/04/07 01:14:54;;;;;;;1.25;1.20;;;;;;;9.52;80.49;100791.50;5155929;28;20034;-81
2023/04/07 01:17:27;;;;;;;2.55;2.35;;;;;;;9.50;81.02;100799.41;5166668;28;20309;-81
2023/04/07 01:20:07;;;;;;;1.50;1.40;;;;;;;9.57;78.12;100797.50;5181075;28;20125;-80
2023/04/07 01:22:42;;;;;;;2.45;1.92;;;;;;;9.60;77.70;100792.22;5175161;28;20022;-81
2023/04/07 01:25:34;;;;;;;1.58;1.45;;;;;;;9.56;78.65;100790.53;5174496;28;20045;-81
2023/04/07 01:28:29;;;;;;;1.27;1.17;;;;;;;9.49;80.01;100794.19;5176772;28;20022;-81
2023/04/07 01:31:00;;;;;;;1.25;1.15;;;;;;;9.54;79.54;100795.81;5176832;28;20034;-80
2023/04/07 01:33:33;;;;;;;7.13;2.35;;;;;;;9.54;82.53;100794.97;5169334;28;20018;-80
2023/04/07 01:36:05;;;;;;;2.38;2.17;;;;;;;9.60;80.24;100797.44;5183440;28;20237;-80
2023/04/07 01:38:37;;;;;;;1.25;1.25;;;;;;;9.66;79.25;100794.69;5157830;28;20026;-80
2023/04/07 01:41:09;;;;;;;1.17;1.15;;;;;;;9.61;79.23;100791.31;5165032;28;20031;-81
2023/04/07 01:43:40;;;;;;;1.02;1.00;;;;;;;9.53;80.84;100798.47;5174669;28;20131;-80
2023/04/07 01:46:11;;;;;;;1.15;1.15;;;;;;;9.44;83.00;100789.91;5158756;28;20033;-81
2023/04/07 01:48:41;;;;;;;1.92;1.83;;;;;;;9.66;79.99;100799.91;5151366;28;20546;-80
2023/04/07 01:51:16;;;;;;;2.20;2.05;;;;;;;9.61;80.53;100799.16;5173612;28;20480;-80
2023/04/07 01:53:48;;;;;;;0.98;0.98;;;;;;;9.52;80.34;100794.97;5162603;28;20034;-80
2023/04/07 01:56:18;;;;;;;1.65;1.55;;;;;;;9.50;81.27;100801.16;5167062;28;20044;-80
2023/04/07 01:58:49;;;;;;;2.03;1.88;;;;;;;9.58;79.81;100796.59;5162902;28;20435;-80
2023/04/07 02:01:20;;;;;;;2.58;2.38;;;;;;;9.40;82.38;100797.88;5179793;28;20447;-80
2023/04/07 02:04:04;;;;;;;2.00;1.80;;;;;;;9.39;82.95;100804.00;5161882;28;20505;-79
2023/04/07 02:06:42;;;;;;;1.95;1.83;;;;;;;9.49;80.28;100807.28;5174078;28;20072;-80
2023/04/07 02:09:15;;;;;;;1.00;1.00;;;;;;;9.42;82.23;100804.78;5181377;28;20029;-80
2023/04/07 02:11:46;;;;;;;1.30;1.02;;;;;;;9.47;81.63;100795.97;5181991;28;20064;-80
2023/04/07 02:14:20;;;;;;;2.47;2.28;;;;;;;9.55;79.52;100799.28;5180643;28;20046;-80
2023/04/07 02:16:52;;;;;;;1.95;1.85;;;;;;;9.52;80.24;100799.38;5175245;28;20098;-79
2023/04/07 02:19:23;;;;;;;2.38;2.20;;;;;;;9.41;83.51;100802.22;5152352;28;20030;-81
2023/04/07 02:21:55;;;;;;;1.80;1.70;;;;;;;9.45;81.54;100804.75;5180035;28;20081;-80
2023/04/07 02:24:25;;;;;;;1.67;1.58;;;;;;;9.42;81.80;100802.19;5174905;28;20026;-80
2023/04/07 02:26:56;;;;;;;2.13;1.90;;;;;;;9.42;82.72;100807.41;5159711;28;20080;-79
2023/04/07 02:29:26;;;;;;;2.13;2.03;;;;;;;9.50;81.32;100804.66;5164199;28;20049;-81
2023/04/07 02:31:57;;;;;;;0.85;0.85;;;;;;;9.38;83.30;100803.13;5164140;28;20113;-80
2023/04/07 02:34:27;;;;;;;1.33;1.30;;;;;;;9.39;82.65;100804.84;5177715;28;20030;-80
2023/04/07 02:36:58;;;;;;;4.03;2.45;;;;;;;9.51;79.99;100802.88;5176501;28;20095;-81
2023/04/07 02:39:28;;;;;;;4.50;2.38;;;;;;;9.53;79.50;100799.31;5176303;28;20748;-80
2023/04/07 02:41:59;;;;;;;2.72;1.98;;;;;;;9.45;80.92;100809.97;5186212;28;20026;-81
2023/04/07 02:44:30;;;;;;;2.95;2.25;;;;;;;9.52;79.13;100801.97;5154691;28;20504;-80
2023/04/07 02:47:03;;;;;;;2.42;2.22;;;;;;;9.47;79.75;100807.31;5177644;28;20026;-81
2023/04/07 02:49:34;;;;;;;1.40;1.30;;;;;;;9.48;80.07;100810.78;5184626;28;20060;-81
2023/04/07 02:52:04;;;;;;;1.75;1.65;;;;;;;9.35;82.37;100808.44;5195660;28;20552;-79
2023/04/07 02:54:35;;;;;;;0.90;0.90;;;;;;;9.28;83.83;100810.31;5190167;28;20444;-80
2023/04/07 02:57:05;;;;;;;2.38;2.17;;;;;;;9.20;84.34;100808.75;5172193;28;20038;-79
2023/04/07 02:59:36;;;;;;;1.27;1.27;;;;;;;9.27;82.32;100810.34;5188925;28;20081;-81
2023/04/07 03:02:06;;;;;;;2.58;2.38;;;;;;;9.39;81.20;100817.94;5188508;28;20124;-80
2023/04/07 03:04:37;;;;;;;2.15;1.95;;;;;;;9.40;81.06;100819.66;5192348;28;20045;-78
2023/04/07 03:07:07;;;;;;;13.35;2.13;;;;;;;9.37;81.37;100817.13;5171604;28;20013;-80
2023/04/07 03:09:38;;;;;;;2.08;0.73;;;;;;;9.26;83.25;100813.88;5183095;28;20511;-79
2023/04/07 03:12:09;;;;;;;1.52;1.42;;;;;;;9.25;83.05;100817.38;5190474;28;20197;-80
2023/04/07 03:14:40;;;;;;;1.70;1.60;;;;;;;9.14;82.53;100820.19;5198015;28;20037;-80
2023/04/07 03:17:11;;;;;;;0.77;0.77;;;;;;;9.13;83.49;100821.94;5185760;28;20392;-79
2023/04/07 03:19:41;;;;;;;1.40;1.30;;;;;;;9.23;82.01;100825.25;5166277;28;20614;-79
2023/04/07 03:22:12;;;;;;;1.42;1.33;;;;;;;8.96;84.99;100826.66;5174666;28;20345;-80
2023/04/07 03:24:42;;;;;;;2.10;1.40;;;;;;;9.00;84.96;100828.31;5172974;28;20078;-79
2023/04/07 03:27:13;;;;;;;1.60;1.50;;;;;;;9.06;83.20;100830.81;5172132;28;20026;-80
2023/04/07 03:29:43;;;;;;;0.85;0.85;;;;;;;9.16;82.22;100833.25;5161798;28;20037;-80
2023/04/07 03:32:14;;;;;;;2.30;2.10;;;;;;;9.09;83.98;100833.38;5167112;28;20034;-80
2023/04/07 03:34:44;;;;;;;1.20;1.20;;;;;;;9.20;81.88;100825.31;5180821;28;20492;-80
2023/04/07 03:37:15;;;;;;;1.27;1.27;;;;;;;9.20;81.89;100829.69;5187042;28;20502;-80
2023/04/07 03:39:45;;;;;;;1.83;1.73;;;;;;;9.14;82.31;100831.53;5186078;28;20042;-80
2023/04/07 03:42:16;;;;;;;6.28;2.92;;;;;;;9.20;81.20;100829.69;5186357;28;20434;-80
2023/04/07 03:44:46;;;;;;;1.58;1.48;;;;;;;9.07;83.19;100829.06;5172704;28;20120;-81
2023/04/07 03:47:17;;;;;;;1.58;1.48;;;;;;;9.19;81.12;100827.97;5178462;28;20069;-79
2023/04/07 03:49:47;;;;;;;1.70;1.35;;;;;;;9.05;83.77;100830.84;5199105;28;20030;-79
2023/04/07 03:52:18;;;;;;;1.17;1.17;;;;;;;8.87;85.07;100837.28;5180881;28;20010;-79
2023/04/07 03:54:49;;;;;;;2.45;2.33;;;;;;;8.89;84.90;100835.50;5201798;28;20081;-80
2023/04/07 03:57:19;;;;;;;1.45;1.27;;;;;;;9.01;82.27;100839.66;5179243;28;20101;-79
2023/04/07 03:59:50;;;;;;;1.45;1.35;;;;;;;9.18;80.51;100842.78;5182219;28;20037;-79
2023/04/07 04:02:21;;;;;;;1.00;0.98;;;;;;;9.13;81.73;100842.03;5170269;28;20319;-79
2023/04/07 04:04:51;;;;;;;0.88;0.88;;;;;;;9.17;80.02;100845.44;5163326;28;20052;-80
2023/04/07 04:07:22;;;;;;;4.05;2.58;;;;;;;9.14;80.78;100836.75;5155880;28;20037;-80
2023/04/07 04:09:52;;;;;;;2.13;1.80;;;;;;;8.97;82.06;100842.31;5170478;28;20073;-81
2023/04/07 04:12:22;;;;;;;1.00;1.00;;;;;;;8.56;85.56;100843.91;5182737;28;20065;-79
2023/04/07 04:14:53;;;;;;;0.43;0.43;;;;;;;8.59;84.46;100845.63;5159147;28;20041;-79
2023/04/07 04:17:25;;;;;;;0.93;0.93;;;;;;;8.50;84.72;100844.88;5158806;28;20038;-80
2023/04/07 04:19:55;;;;;;;0.60;0.60;;;;;;;8.39;86.57;100846.75;5163289;28;20033;-79
2023/04/07 04:22:25;;;;;;;1.08;0.98;;;;;;;8.61;83.73;100843.84;5178372;28;20040;-78
2023/04/07 04:24:56;;;;;;;1.63;1.17;;;;;;;8.72;82.99;100857.59;5171754;28;20796;-79
2023/04/07 04:27:27;;;;;;;0.77;0.77;;;;;;;8.59;83.92;100854.34;5193573;28;20092;-79
2023/04/07 04:29:57;;;;;;;0.95;0.93;;;;;;;8.57;83.88;100852.63;5182413;28;20138;-78
2023/04/07 04:32:28;;;;;;;1.70;1.60;;;;;;;8.52;84.04;100851.84;5182738;28;20042;-79
2023/04/07 04:34:58;;;;;;;0.32;0.32;;;;;;;8.52;83.46;100844.84;5163672;28;20046;-79
2023/04/07 04:37:29;;;;;;;1.63;1.52;;;;;;;8.50;83.95;100857.97;5150534;28;20033;-79
2023/04/07 04:39:59;;;;;;;0.98;0.98;;;;;;;8.55;83.16;100864.88;5180009;28;20060;-79
2023/04/07 04:42:32;;;;;;;1.30;1.20;;;;;;;8.48;84.06;100867.56;5152728;28;20542;-79
2023/04/07 04:45:03;;;;;;;2.60;1.85;;;;;;;8.46;84.10;100861.50;5165187;28;20106;-79
2023/04/07 04:47:33;;;;;;;2.38;1.23;;;;;;;8.38;85.35;100865.97;5176831;28;20120;-79
2023/04/07 04:50:07;;;;;;;1.08;1.02;;;;;;;8.48;84.46;100866.72;5183066;28;20030;-78
2023/04/07 04:52:38;;;;;;;1.10;1.10;;;;;;;8.60;82.02;100861.28;5174841;28;20069;-79
2023/04/07 04:55:08;;;;;;;0.63;0.63;;;;;;;8.61;82.91;100870.00;5174247;28;20279;-79
2023/04/07 04:57:39;;;;;;;0.43;0.43;;;;;;;8.53;83.48;100874.50;5147225;28;20033;-79
2023/04/07 05:00:10;;;;;;;0.77;0.77;;;;;;;8.52;83.58;100878.00;5159636;28;20073;-79
2023/04/07 05:02:41;;;;;;;1.05;1.05;;;;;;;8.59;82.62;100879.63;5172192;28;20034;-79
2023/04/07 05:05:12;;;;;;;1.15;1.05;;;;;;;8.54;83.28;100876.22;5191677;28;20041;-79
2023/04/07 05:07:42;;;;;;;0.70;0.70;;;;;;;8.62;81.76;100883.03;5168418;28;20025;-79
2023/04/07 05:10:13;;;;;;;0.65;0.65;;;;;;;8.53;82.36;100882.34;5181823;28;20101;-79
2023/04/07 05:12:43;;;;;;;0.40;0.40;;;;;;;8.71;80.97;100889.00;5189020;28;20081;-79
2023/04/07 05:15:14;;;;;;;0.93;0.93;;;;;;;8.53;83.40;100890.19;5152030;28;20034;-79
2023/04/07 05:17:49;;;;;;;1.55;1.45;;;;;;;8.50;83.84;100889.34;5172507;28;20056;-79
2023/04/07 05:20:19;;;;;;;0.30;0.30;;;;;;;8.39;84.73;100893.81;5169056;28;20062;-79
2023/04/07 05:22:50;;;;;;;0.90;0.90;;;;;;;8.53;83.45;100900.66;5193552;28;20073;-79
2023/04/07 05:25:20;;;;;;;1.95;1.85;;;;;;;8.63;81.51;100894.38;5166973;28;20069;-79
2023/04/07 05:27:51;;;;;;;0.43;0.43;;;;;;;8.64;81.51;100903.94;5168447;28;20040;-79
2023/04/07 05:30:21;;;;;;;0.80;0.80;;;;;;;8.54;82.91;100903.22;5197226;28;20037;-79
2023/04/07 05:32:52;;;;;;;0.63;0.63;;;;;;;8.43;84.01;100908.59;5157609;28;20048;-79
2023/04/07 05:35:22;;;;;;;0.32;0.32;;;;;;;8.70;80.74;100903.84;5182423;28;20042;-79
2023/04/07 05:37:53;;;;;;;1.55;1.48;;;;;;;8.70;82.16;100903.84;5189476;28;20034;-79
2023/04/07 05:40:23;;;;;;;0.80;0.80;;;;;;;8.63;82.67;100902.22;5184290;28;20033;-79
2023/04/07 05:42:54;;;;;;;1.42;1.33;;;;;;;8.52;83.82;100915.44;5156945;28;20018;-78
2023/04/07 05:45:24;;;;;;;0.52;0.52;;;;;;;8.48;84.45;100911.19;5165626;28;20037;-79
2023/04/07 05:47:55;;;;;;;0.55;0.55;;;;;;;8.73;81.32;100902.94;5178533;28;20108;-79
2023/04/07 05:50:25;;;;;;;0.68;0.68;;;;;;;8.62;82.46;100910.97;5180205;28;20186;-79
2023/04/07 05:52:56;;;;;;;0.90;0.88;;;;;;;8.50;83.58;100912.03;5171948;28;20029;-79
2023/04/07 05:55:26;;;;;;;2.28;1.40;;;;;;;8.64;82.03;100920.50;5161505;28;20034;-79
2023/04/07 05:57:57;;;;;;;0.40;0.40;;;;;;;8.36;85.26;100922.66;5163921;28;20022;-79
2023/04/07 06:00:27;;;;;;;0.85;0.85;;;;;;;8.50;83.62;100918.09;5172767;28;20042;-79
2023/04/07 06:02:57;;;;;;;1.42;1.10;;;;;;;8.67;83.25;100922.22;5154909;28;20022;-79
2023/04/07 06:05:28;;;;;;;3.17;1.67;;;;;;;8.63;82.42;100918.78;5156119;28;20041;-79
2023/04/07 06:07:58;;;;;;;1.88;1.30;;;;;;;8.61;83.26;100924.94;5167148;28;20128;-79
2023/04/07 06:10:29;;;;;;;1.25;1.15;;;;;;;8.73;81.84;100936.94;5163643;28;20093;-79
2023/04/07 06:12:59;;;;;;;0.88;0.88;;;;;;;8.82;80.48;100939.41;5168233;28;20050;-79
2023/04/07 06:15:30;;;;;;;1.25;1.15;;;;;;;8.67;82.70;100940.50;5156498;28;20092;-79
2023/04/07 06:18:00;;;;;;;0.63;0.63;;;;;;;8.54;85.21;100934.59;5180505;28;20327;-79
2023/04/07 06:20:31;;;;;;;0.73;0.73;;;;;;;8.61;83.86;100938.84;5183497;28;20050;-79
2023/04/07 06:23:01;;;;;;;2.17;1.02;;;;;;;8.44;85.57;100944.31;5179850;28;20034;-79
2023/04/07 06:25:32;;;;;;;0.93;0.93;;;;;;;8.61;83.64;100943.25;5180215;28;20098;-79
2023/04/07 06:28:02;;;;;;;1.10;1.10;;;;;;;8.68;82.79;100941.41;5178583;28;20045;-78
2023/04/07 06:30:33;;;;;;;0.50;0.50;;;;;;;8.81;82.04;100951.63;5165743;28;20113;-81
2023/04/07 06:33:04;;;;;;;0.40;0.40;;;;;;;8.53;85.25;100947.72;5163896;28;20025;-80
2023/04/07 06:35:34;;;;;;;1.40;1.27;;;;;;;8.55;85.29;100945.94;5178199;28;20046;-80
2023/04/07 06:38:05;;;;;;;1.52;1.42;;;;;;;8.80;81.32;100951.66;5183451;28;20104;-80
2023/04/07 06:40:35;;;;;;;2.38;1.25;;;;;;;8.90;80.51;100947.13;5172916;28;20022;-79
2023/04/07 06:43:05;;;;;;;0.43;0.43;;;;;;;8.65;85.50;100956.25;5172251;28;20045;-77
2023/04/07 06:45:36;;;;;;;0.98;0.98;;;;;;;8.81;82.93;100959.47;5164025;28;20455;-77
2023/04/07 06:48:06;;;;;;;0.60;0.60;;;;;;;8.84;82.33;100962.94;5188617;28;20022;-78
2023/04/07 06:50:40;;;;;;;2.30;2.15;;;;;;;8.80;82.91;100964.72;5185127;28;20038;-79
2023/04/07 06:53:10;;;;;;;1.08;1.08;;;;;;;8.92;80.82;100971.53;5172424;28;20655;-79
2023/04/07 06:55:40;;;;;;;1.30;1.15;;;;;;;8.99;80.01;100975.75;5170694;28;20125;-79
2023/04/07 06:58:11;;;;;;;0.60;0.60;;;;;;;9.06;79.09;100972.16;5156580;28;20033;-79
2023/04/07 07:00:41;;;;;;;0.88;0.88;;;;;;;9.06;79.83;100974.78;5162763;28;20199;-79
2023/04/07 07:03:12;;;;;;;1.75;1.52;;;;;;;9.04;81.30;100970.47;5180441;28;20044;-79
2023/04/07 07:05:42;;;;;;;10.32;0.82;;;;;;;9.09;80.72;100985.19;5183044;28;20042;-78
2023/04/07 07:08:12;;;;;;;1.85;1.13;;;;;;;9.16;79.61;100979.84;5163317;28;20029;-79
2023/04/07 07:10:43;;;;;;;1.73;1.40;;;;;;;9.23;79.02;100984.09;5180900;28;20057;-79
2023/04/07 07:13:13;;;;;;;0.40;0.40;;;;;;;9.12;80.64;100981.66;5178702;28;20543;-79
2023/04/07 07:15:44;;;;;;;0.60;0.60;;;;;;;9.23;80.16;100991.94;5161554;28;20113;-80
2023/04/07 07:18:15;;;;;;;0.68;0.68;;;;;;;8.92;83.87;100982.00;5173617;28;20034;-79
2023/04/07 07:20:46;;;;;;;1.15;1.05;;;;;;;9.09;82.83;100990.44;5184784;28;20515;-79
2023/04/07 07:23:16;;;;;;;1.35;1.25;;;;;;;9.02;82.97;100998.41;5164599;28;20033;-79
2023/04/07 07:25:47;;;;;;;1.48;1.35;;;;;;;9.12;81.94;100989.50;5162091;28;20110;-82
2023/04/07 07:28:17;;;;;;;2.35;2.05;;;;;;;9.01;84.18;100991.47;5167048;28;20108;-81
2023/04/07 07:30:48;;;;;;;0.73;0.73;;;;;;;9.04;84.31;100996.63;5161972;28;20420;-81
2023/04/07 07:33:19;;;;;;;0.77;0.77;;;;;;;9.10;83.04;100994.78;5177921;28;20041;-81
2023/04/07 07:35:49;;;;;;;2.10;1.35;;;;;;;9.17;82.71;101005.16;5165450;28;20041;-79
2023/04/07 07:38:20;;;;;;;0.45;0.45;;;;;;;9.13;83.10;101001.72;5185854;28;20084;-79
2023/04/07 07:40:50;;;;;;;1.13;0.70;;;;;;;9.13;82.81;101002.56;5188452;28;20133;-79
2023/04/07 07:43:20;;;;;;;1.00;0.93;;;;;;;9.27;81.98;101004.97;5173931;28;20659;-80
2023/04/07 07:45:51;;;;;;;0.43;0.38;;;;;;;9.23;82.66;101007.66;5170161;28;20037;-78
2023/04/07 07:48:21;;;;;;;0.40;0.40;;;;;;;9.21;81.98;100997.22;5187822;28;20026;-79
2023/04/07 07:50:52;;;;;;;1.20;1.10;;;;;;;9.20;82.51;100997.25;5164840;28;20045;-79
2023/04/07 07:53:22;;;;;;;0.40;0.40;;;;;;;9.26;81.66;101000.59;5188258;28;20049;-80
2023/04/07 07:55:54;;;;;;;1.33;1.05;;;;;;;9.39;80.56;101009.13;5194768;28;20034;-81
2023/04/07 07:58:25;;;;;;;1.58;1.30;;;;;;;9.37;81.58;101005.69;5190201;28;20027;-79
2023/04/07 08:00:55;;;;;;;1.27;1.25;;;;;;;9.43;80.53;101010.81;5181075;28;20034;-78
2023/04/07 08:03:26;;;;;;;0.88;0.88;;;;;;;9.32;82.40;101007.50;5186010;28;20463;-78
2023/04/07 08:05:57;;;;;;;0.22;0.22;;;;;;;9.38;82.54;101012.63;5183651;28;20030;-79
2023/04/07 08:08:27;;;;;;;0.65;0.65;;;;;;;9.30;83.30;101017.13;5194076;28;20033;-79
2023/04/07 08:10:58;;;;;;;0.52;0.52;;;;;;;9.36;82.35;101024.91;5161783;28;20046;-79
2023/04/07 08:13:28;;;;;;;1.30;1.20;;;;;;;9.44;82.32;101025.63;5181491;28;20034;-79
2023/04/07 08:15:59;;;;;;;0.40;0.40;;;;;;;9.25;82.83;101024.22;5163419;28;20034;-80
2023/04/07 08:18:29;;;;;;;0.40;0.40;;;;;;;9.03;84.43;101021.94;5164170;28;20296;-80
2023/04/07 08:21:00;;;;;;;0.47;0.47;;;;;;;9.32;82.13;101031.06;5126175;28;20626;-79
2023/04/07 08:23:31;;;;;;;1.48;1.38;;;;;;;9.31;82.89;101029.34;5162648;28;20079;-78
2023/04/07 08:26:01;;;;;;;2.25;1.40;;;;;;;9.52;80.81;101028.09;5178963;28;20551;-79
2023/04/07 08:28:32;;;;;;;0.65;0.65;;;;;;;9.58;80.57;101032.38;5175220;28;20085;-79
2023/04/07 08:31:02;;;;;;;0.63;0.63;;;;;;;9.63;80.96;101033.16;5164389;28;20553;-79
2023/04/07 08:33:33;;;;;;;7.97;1.15;;;;;;;9.64;81.17;101034.88;5147972;28;20028;-79
2023/04/07 08:36:03;;;;;;;1.10;1.05;;;;;;;9.60;81.00;101038.47;5172675;28;20038;-80
2023/04/07 08:38:34;;;;;;;1.63;1.25;;;;;;;9.67;80.60;101040.06;5171692;28;20432;-80
2023/04/07 08:41:11;;;;;;;0.73;0.73;;;;;;;9.69;80.70;101043.53;5155498;28;20056;-80
2023/04/07 08:43:44;;;;;;;0.77;0.75;;;;;;;9.61;81.25;101041.03;5163115;28;20034;-79
2023/04/07 08:46:20;;;;;;;1.95;1.05;;;;;;;9.56;81.41;101053.38;5194513;28;20555;-80
2023/04/07 08:48:51;;;;;;;0.65;0.65;;;;;;;9.62;80.26;101057.63;5183838;28;20414;-79
2023/04/07 08:51:27;;;;;;;1.58;1.33;;;;;;;9.60;81.08;101051.56;5190371;28;20089;-79
2023/04/07 08:54:09;;;;;;;3.25;1.20;;;;;;;9.57;81.85;101056.84;5200346;28;20025;-80
2023/04/07 08:56:41;;;;;;;0.75;0.75;;;;;;;9.69;80.21;101059.25;5167674;28;20034;-80
2023/04/07 08:59:15;;;;;;;0.60;0.60;;;;;;;9.64;80.91;101061.06;5184415;28;20034;-80
2023/04/07 09:01:46;;;;;;;1.58;1.48;;;;;;;9.73;79.85;101060.06;5181862;28;20049;-79
2023/04/07 09:04:17;;;;;;;0.60;0.60;;;;;;;9.64;80.66;101062.84;5181484;28;20037;-79
2023/04/07 09:06:48;;;;;;;1.25;1.15;;;;;;;9.65;81.32;101065.44;5161562;28;20528;-78
2023/04/07 09:09:18;;;;;;;0.68;0.68;;;;;;;9.65;81.09;101064.56;5178046;28;20014;-78
2023/04/07 09:11:50;;;;;;;0.20;0.20;;;;;;;9.59;81.34;101063.78;5150956;28;20391;-79
2023/04/07 09:14:20;;;;;;;0.43;0.43;;;;;;;9.71;80.62;101067.09;5145961;28;20030;-79
2023/04/07 09:16:53;;;;;;;1.83;1.73;;;;;;;9.59;81.67;101070.78;5178887;28;20057;-77
2023/04/07 09:19:26;;;;;;;0.77;0.77;;;;;;;9.52;82.21;101079.63;5185914;28;20078;-79
2023/04/07 09:21:56;;;;;;;1.05;1.02;;;;;;;9.65;81.17;101083.78;5195661;28;20054;-79
2023/04/07 09:24:28;;;;;;;0.60;0.60;;;;;;;9.63;80.80;101075.06;5187200;28;20038;-78
2023/04/07 09:27:16;;;;;;;1.83;1.60;;;;;;;9.61;80.67;101072.47;5166727;28;20392;-78
2023/04/07 09:29:46;;;;;;;0.57;0.57;;;;;;;9.60;80.89;101081.22;5185956;28;20038;-78
2023/04/07 09:32:42;;;;;;;0.77;0.77;;;;;;;9.68;80.10;101088.97;5181308;28;20097;-77
2023/04/07 09:35:13;;;;;;;0.60;0.60;;;;;;;9.33;82.75;101086.94;5148187;28;20042;-78
2023/04/07 09:37:43;;;;;;;2.25;2.05;;;;;;;9.28;82.77;101087.88;5149832;28;20037;-78
2023/04/07 09:40:26;;;;;;;4.47;1.55;;;;;;;9.49;81.05;101084.91;5191033;28;20513;-77
2023/04/07 09:42:57;;;;;;;1.75;1.42;;;;;;;9.47;81.41;101091.94;5165646;28;20022;-78
2023/04/07 09:45:30;;;;;;;1.45;1.20;;;;;;;9.45;80.91;101087.59;5186013;28;20109;-79
2023/04/07 09:48:18;;;;;;;2.03;1.83;;;;;;;9.33;82.73;101092.19;5196822;28;20104;-78
2023/04/07 09:50:49;;;;;;;1.15;1.02;;;;;;;9.52;81.12;101095.34;5166104;28;20107;-78
2023/04/07 09:53:40;;;;;;;0.75;0.75;;;;;;;9.04;83.93;101099.59;5160220;28;20037;-77
2023/04/07 09:56:12;;;;;;;1.30;1.20;;;;;;;9.03;83.79;101091.75;5200773;28;20535;-78
2023/04/07 09:58:46;;;;;;;1.38;1.15;;;;;;;9.15;83.04;101096.81;5166748;28;20054;-78
2023/04/07 10:01:17;;;;;;;1.55;1.40;;;;;;;9.32;81.50;101101.78;5171591;28;20474;-78
2023/04/07 10:03:49;;;;;;;0.50;0.50;;;;;;;9.25;82.39;101094.91;5168025;28;20037;-78
2023/04/07 10:06:20;;;;;;;0.93;0.93;;;;;;;9.06;82.64;101095.19;5171782;28;20120;-79
2023/04/07 10:08:51;;;;;;;0.98;0.85;;;;;;;9.03;82.88;101095.25;5170634;28;20104;-79
2023/04/07 10:11:21;;;;;;;0.55;0.55;;;;;;;9.21;81.67;101098.47;5186769;28;20034;-78
2023/04/07 10:13:52;;;;;;;0.60;0.60;;;;;;;9.13;82.65;101098.59;5159232;28;20568;-79
2023/04/07 10:16:24;;;;;;;1.38;1.27;;;;;;;8.97;83.39;101100.53;5182265;28;20037;-79
2023/04/07 10:18:55;;;;;;;1.55;1.45;;;;;;;9.07;83.36;101102.16;5179308;28;20031;-79
2023/04/07 10:21:26;;;;;;;0.50;0.50;;;;;;;9.17;81.99;101109.88;5180591;28;20057;-79
2023/04/07 10:24:28;;;;;;;4.80;1.50;;;;;;;9.30;80.76;101100.91;5184688;28;20040;-80
2023/04/07 10:27:03;;;;;;;1.45;1.35;;;;;;;9.43;80.79;101099.84;5187727;28;20080;-80
2023/04/07 10:29:40;;;;;;;1.92;1.83;;;;;;;9.40;81.86;101096.44;5168423;28;20049;-80
2023/04/07 10:32:11;;;;;;;1.27;0.82;;;;;;;9.39;82.00;101103.41;5183025;28;20034;-80
2023/04/07 10:34:52;;;;;;;1.13;0.82;;;;;;;9.51;81.49;101101.47;5164812;28;20432;-79
2023/04/07 10:37:24;;;;;;;0.57;0.57;;;;;;;9.58;80.82;101105.72;5185390;28;20117;-80
2023/04/07 10:40:20;;;;;;;0.77;0.77;;;;;;;9.54;83.15;101104.06;5180519;28;20448;-80
2023/04/07 10:42:51;;;;;;;6.78;1.10;;;;;;;9.50;82.88;101105.88;5188066;28;20547;-80
2023/04/07 10:45:53;;;;;;;0.77;0.77;;;;;;;9.62;81.51;101112.66;5166652;28;20037;-79
2023/04/07 10:48:24;;;;;;;1.58;1.48;;;;;;;9.66;81.42;101109.09;5188826;28;20444;-80
2023/04/07 10:51:04;;;;;;;0.60;0.60;;;;;;;9.65;80.24;101115.22;5168776;28;20098;-79
2023/04/07 10:53:35;;;;;;;0.90;0.90;;;;;;;9.57;80.93;101115.34;5180663;28;20026;-80
2023/04/07 10:56:05;;;;;;;0.73;0.73;;;;;;;9.71;79.11;101112.47;5179110;28;20523;-79
2023/04/07 10:58:36;;;;;;;0.90;0.90;;;;;;;9.81;79.73;101120.19;5182622;28;20046;-79
2023/04/07 11:01:07;;;;;;;14.75;1.15;;;;;;;9.79;78.73;101122.84;5183338;28;20455;-79
2023/04/07 11:03:41;;;;;;;1.02;1.02;;;;;;;9.82;78.53;101121.91;5173481;28;20061;-80
2023/04/07 11:06:12;;;;;;;1.30;1.20;;;;;;;9.89;78.75;101118.28;5186191;28;20073;-79
2023/04/07 11:08:44;;;;;;;0.50;0.50;;;;;;;9.90;78.96;101120.91;5187522;28;20037;-80
2023/04/07 11:11:19;;;;;;;1.23;1.17;;;;;;;9.93;79.57;101122.59;5186753;28;20053;-79
2023/04/07 11:13:50;;;;;;;0.50;0.50;;;;;;;9.93;79.39;101122.59;5172047;28;20091;-78
2023/04/07 11:16:34;;;;;;;2.40;1.27;;;;;;;9.82;79.87;101127.16;5181215;28;20050;-80
2023/04/07 11:19:05;;;;;;;1.90;1.60;;;;;;;9.97;78.80;101126.88;5185001;28;20443;-80
2023/04/07 11:21:35;;;;;;;3.97;2.60;;;;;;;9.98;79.16;101131.22;5184790;28;20046;-81
2023/04/07 11:24:06;;;;;;;0.73;0.73;;;;;;;10.03;79.18;101128.53;5180809;28;20049;-80
2023/04/07 11:26:40;;;;;;;4.55;1.67;;;;;;;10.08;78.73;101130.19;5166478;28;20321;-80
2023/04/07 11:29:11;;;;;;;1.15;1.10;;;;;;;9.98;79.04;101133.00;5190834;28;20093;-82
2023/04/07 11:31:47;;;;;;;1.70;1.60;;;;;;;9.99;79.10;101124.25;5187753;28;20046;-81
2023/04/07 11:34:17;;;;;;;2.40;2.20;;;;;;;10.02;79.23;101140.78;5182621;28;20077;-81
2023/04/07 11:36:48;;;;;;;3.95;1.80;;;;;;;10.09;78.29;101133.66;5164856;28;20033;-80
2023/04/07 11:39:26;;;;;;;1.77;1.67;;;;;;;10.12;78.22;101136.22;5183302;28;20022;-81
2023/04/07 11:41:57;;;;;;;1.52;1.42;;;;;;;10.20;78.23;101133.47;5164876;28;20515;-82
2023/04/07 11:44:27;;;;;;;0.85;0.82;;;;;;;10.19;78.22;101137.84;5144136;28;20026;-81
2023/04/07 11:47:02;;;;;;;1.08;1.02;;;;;;;10.08;78.57;101151.16;5197000;28;20053;-81
2023/04/07 11:49:32;;;;;;;3.15;0.90;;;;;;;10.15;78.21;101145.78;5180074;28;20032;-81
2023/04/07 11:52:07;;;;;;;0.73;0.73;;;;;;;10.15;79.06;101145.78;5179673;28;20039;-81
2023/04/07 11:54:42;;;;;;;4.05;1.58;;;;;;;10.04;79.02;101149.47;5178573;28;20030;-80
2023/04/07 11:57:13;;;;;;;0.50;0.50;;;;;;;10.06;79.06;101159.94;5170193;28;20107;-81